Terminal Aerodrome Forecast
Issued by NWS Sioux Falls, SD

Home | Current Version | Previous Version | Graphics & Text | Print | Product List | Glossary On
Versions: 1 2 3 4 5 6 7 8 9 10 11 12 13 14 15 16 17 18 19 20 21 22
000
FTUS43 KFSD 040154 AAA
TAFSUX
TAF AMD
KSUX 040154Z 0402/0424 15009KT 5SM BR OVC004
     FM041000 19005KT 5SM BR BKN010
     FM041500 26006KT P6SM SCT025 SCT080
     FM041700 29007KT P6SM SCT080=

USA.gov is the U.S. government's official web portal to all federal, state and local government web resources and services.